createdAt,value
2023-04-05T00:01:28.797Z,2.16
2023-04-05T00:03:58.434Z,2.10
2023-04-05T00:06:28.942Z,2.09
2023-04-05T00:08:59.729Z,1.89
2023-04-05T00:11:27.755Z,1.69
2023-04-05T00:13:54.182Z,1.66
2023-04-05T00:16:20.841Z,1.64
2023-04-05T00:18:51.521Z,1.67
2023-04-05T00:21:22.820Z,1.58
2023-04-05T00:23:59.846Z,1.71
2023-04-05T00:26:26.968Z,1.79
2023-04-05T00:28:53.673Z,1.85
2023-04-05T00:31:20.196Z,1.93
2023-04-05T00:33:46.900Z,1.87
2023-04-05T00:36:14.652Z,1.78
2023-04-05T00:38:42.410Z,1.87
2023-04-05T00:41:08.879Z,1.93
2023-04-05T00:43:35.431Z,1.87
2023-04-05T00:46:02.805Z,1.88
2023-04-05T00:48:29.716Z,1.84
2023-04-05T00:50:58.038Z,1.77
2023-04-05T00:53:27.275Z,1.73
2023-04-05T00:55:54.782Z,1.71
2023-04-05T00:58:25.118Z,1.64
2023-04-05T01:01:13.651Z,1.69
2023-04-05T01:03:49.529Z,1.65
2023-04-05T01:06:40.925Z,1.54
2023-04-05T01:09:23.272Z,1.54
2023-04-05T01:11:52.546Z,1.52
2023-04-05T01:14:19.000Z,1.65
2023-04-05T01:16:45.554Z,1.68
2023-04-05T01:19:13.302Z,1.80
2023-04-05T01:21:58.336Z,1.88
2023-04-05T01:24:52.720Z,1.91
2023-04-05T01:27:57.216Z,1.95
2023-04-05T01:30:29.856Z,1.98
2023-04-05T01:33:05.059Z,2.04
2023-04-05T01:35:38.683Z,1.83
2023-04-05T01:38:10.398Z,1.78
2023-04-05T01:40:38.516Z,1.75
2023-04-05T01:43:16.255Z,1.70
2023-04-05T01:45:44.418Z,1.63
2023-04-05T01:48:12.030Z,1.73
2023-04-05T01:50:39.263Z,1.84
2023-04-05T01:53:07.855Z,1.86
2023-04-05T01:55:34.281Z,1.92
2023-04-05T01:58:00.687Z,1.95
2023-04-05T02:00:27.915Z,2.03
2023-04-05T02:02:54.517Z,2.07
2023-04-05T02:05:21.003Z,2.06
2023-04-05T02:07:47.445Z,2.05
2023-04-05T02:10:14.765Z,2.04
2023-04-05T02:12:41.357Z,2.07
2023-04-05T02:15:08.449Z,2.08
2023-04-05T02:17:39.358Z,2.08
2023-04-05T02:20:07.967Z,2.13
2023-04-05T02:22:34.878Z,2.11
2023-04-05T02:25:01.658Z,2.09
2023-04-05T02:27:28.092Z,2.07
2023-04-05T02:29:55.822Z,2.07
2023-04-05T02:32:22.313Z,2.07
2023-04-05T02:34:48.778Z,2.01
2023-04-05T02:37:15.330Z,1.96
2023-04-05T02:39:41.978Z,1.94
2023-04-05T02:42:08.394Z,1.89
2023-04-05T02:44:34.939Z,1.86
2023-04-05T02:47:01.390Z,1.86
2023-04-05T02:49:27.861Z,1.85
2023-04-05T02:51:55.982Z,1.85
2023-04-05T02:54:22.450Z,1.70
2023-04-05T02:56:49.954Z,1.61
2023-04-05T02:59:17.750Z,1.63
2023-04-05T03:01:44.839Z,1.60
2023-04-05T03:04:12.275Z,1.62
2023-04-05T03:06:38.905Z,1.61
2023-04-05T03:09:05.374Z,1.64
2023-04-05T03:11:33.941Z,1.61
2023-04-05T03:14:00.614Z,1.52
2023-04-05T03:16:27.544Z,1.51
2023-04-05T03:18:54.131Z,1.50
2023-04-05T03:21:21.157Z,1.47
2023-04-05T03:23:48.492Z,1.46
2023-04-05T03:26:15.069Z,1.39
2023-04-05T03:28:45.180Z,1.19
2023-04-05T03:31:12.341Z,1.12
2023-04-05T03:33:38.899Z,1.15
2023-04-05T03:36:06.208Z,1.15
2023-04-05T03:38:32.800Z,1.06
2023-04-05T03:40:59.328Z,0.96
2023-04-05T03:43:25.797Z,0.99
2023-04-05T03:45:52.753Z,0.93
2023-04-05T03:48:20.271Z,0.93
2023-04-05T03:50:47.346Z,0.95
2023-04-05T03:53:13.923Z,0.96
2023-04-05T03:55:40.554Z,0.94
2023-04-05T03:58:07.663Z,0.89
2023-04-05T04:00:34.143Z,0.81
2023-04-05T04:03:01.279Z,0.89
2023-04-05T04:05:27.860Z,0.95
2023-04-05T04:07:54.304Z,1.01
2023-04-05T04:10:20.928Z,0.98
2023-04-05T04:12:47.385Z,0.95
2023-04-05T04:15:13.843Z,0.92
2023-04-05T04:17:40.438Z,0.90
2023-04-05T04:20:11.252Z,0.83
2023-04-05T04:22:40.242Z,0.80
2023-04-05T04:25:10.419Z,0.82
2023-04-05T04:27:42.561Z,0.78
2023-04-05T04:30:14.861Z,0.82
2023-04-05T04:32:55.752Z,0.81
2023-04-05T04:35:25.292Z,0.81
2023-04-05T04:38:02.572Z,0.78
2023-04-05T04:40:39.511Z,0.77
2023-04-05T04:43:06.334Z,0.75
2023-04-05T04:45:37.607Z,0.80
2023-04-05T04:48:08.318Z,0.80
2023-04-05T04:50:35.333Z,0.78
2023-04-05T04:53:02.521Z,0.79
2023-04-05T04:55:29.045Z,0.79
2023-04-05T04:57:56.427Z,0.78
2023-04-05T05:00:24.049Z,0.77
2023-04-05T05:02:52.590Z,0.70
2023-04-05T05:05:22.804Z,0.66
2023-04-05T05:07:49.816Z,0.64
2023-04-05T05:10:16.526Z,0.59
2023-04-05T05:12:43.365Z,0.56
2023-04-05T05:15:10.796Z,0.64
2023-04-05T05:17:37.650Z,0.68
2023-04-05T05:20:09.957Z,0.64
2023-04-05T05:22:37.913Z,0.70
2023-04-05T05:25:05.967Z,0.70
2023-04-05T05:27:33.943Z,0.76
2023-04-05T05:30:01.190Z,0.82
2023-04-05T05:32:27.792Z,0.84
2023-04-05T05:34:54.438Z,0.83
2023-04-05T05:37:29.748Z,0.85
2023-04-05T05:39:56.322Z,0.76
2023-04-05T05:42:23.042Z,0.79
2023-04-05T05:44:49.603Z,0.74
2023-04-05T05:47:16.133Z,0.67
2023-04-05T05:49:42.861Z,0.58
2023-04-05T05:52:09.295Z,0.61
2023-04-05T05:54:35.812Z,0.56
2023-04-05T05:57:02.337Z,0.56
2023-04-05T05:59:28.900Z,0.59
2023-04-05T06:01:55.492Z,0.65
2023-04-05T06:04:22.262Z,0.76
2023-04-05T06:06:48.980Z,0.82
2023-04-05T06:09:15.731Z,0.84
2023-04-05T06:11:53.239Z,0.91
2023-04-05T06:14:23.277Z,0.98
2023-04-05T06:16:49.821Z,1.00
2023-04-05T06:19:16.298Z,0.97
2023-04-05T06:21:42.716Z,0.98
2023-04-05T06:24:09.162Z,1.06
2023-04-05T06:26:35.694Z,1.15
2023-04-05T06:29:02.319Z,1.24
2023-04-05T06:31:33.763Z,1.32
2023-04-05T06:34:00.711Z,1.37
2023-04-05T06:36:27.821Z,1.40
2023-04-05T06:38:54.535Z,1.46
2023-04-05T06:41:21.216Z,1.52
2023-04-05T06:43:47.702Z,1.59
2023-04-05T06:46:14.498Z,1.65
2023-04-05T06:48:41.218Z,1.75
2023-04-05T06:51:07.784Z,1.82
2023-04-05T06:53:34.287Z,1.88
2023-04-05T06:56:00.761Z,1.90
2023-04-05T06:58:27.581Z,1.93
2023-04-05T07:00:54.425Z,2.04
2023-04-05T07:03:21.257Z,2.12
2023-04-05T07:05:56.934Z,2.16
2023-04-05T07:08:23.986Z,2.19
2023-04-05T07:10:51.479Z,2.25
2023-04-05T07:13:19.672Z,2.27
2023-04-05T07:15:46.466Z,2.36
2023-04-05T07:18:15.866Z,2.41
2023-04-05T07:20:42.855Z,2.45
2023-04-05T07:23:09.616Z,2.50
2023-04-05T07:25:36.117Z,2.62
2023-04-05T07:28:02.685Z,2.77
2023-04-05T07:30:31.753Z,2.89
2023-04-05T07:32:58.657Z,2.89
2023-04-05T07:35:25.351Z,2.91
2023-04-05T07:37:52.417Z,2.95
2023-04-05T07:40:19.081Z,3.00
2023-04-05T07:42:45.568Z,3.05
2023-04-05T07:45:12.125Z,3.07
2023-04-05T07:47:38.761Z,3.20
2023-04-05T07:50:07.134Z,3.28
2023-04-05T07:52:33.667Z,3.25
2023-04-05T07:55:00.186Z,3.37
2023-04-05T07:57:27.372Z,3.48
2023-04-05T07:59:55.709Z,3.49
2023-04-05T08:02:22.280Z,3.48
2023-04-05T08:04:48.757Z,3.46
2023-04-05T08:07:15.209Z,3.44
2023-04-05T08:09:41.686Z,3.48
2023-04-05T08:12:08.413Z,3.53
2023-04-05T08:14:35.945Z,3.57
2023-04-05T08:17:02.419Z,3.74
2023-04-05T08:19:28.847Z,3.84
2023-04-05T08:21:55.342Z,3.91
2023-04-05T08:24:21.840Z,3.91
2023-04-05T08:26:48.812Z,3.96
2023-04-05T08:29:15.292Z,4.07
2023-04-05T08:31:42.238Z,4.17
2023-04-05T08:34:08.710Z,4.09
2023-04-05T08:36:35.261Z,4.33
2023-04-05T08:39:01.715Z,4.31
2023-04-05T08:41:36.453Z,4.42
2023-04-05T08:44:05.550Z,4.40
2023-04-05T08:46:34.111Z,4.58
2023-04-05T08:49:06.096Z,4.64
2023-04-05T08:51:33.363Z,4.79
2023-04-05T08:54:00.356Z,4.81
2023-04-05T08:56:31.560Z,4.68
2023-04-05T08:59:11.130Z,4.62
2023-04-05T09:01:41.896Z,4.71
2023-04-05T09:04:27.346Z,4.70
2023-04-05T09:06:57.559Z,4.87
2023-04-05T09:09:24.679Z,4.96
2023-04-05T09:11:51.453Z,5.03
2023-04-05T09:14:19.165Z,5.16
2023-04-05T09:16:46.098Z,5.04
2023-04-05T09:19:12.683Z,4.95
2023-04-05T09:21:57.658Z,4.97
2023-04-05T09:24:34.700Z,4.98
2023-04-05T09:27:06.395Z,4.93
2023-04-05T09:29:33.023Z,4.92
2023-04-05T09:32:01.953Z,4.96
2023-04-05T09:34:30.381Z,5.09
2023-04-05T09:36:56.883Z,5.07
2023-04-05T09:39:29.259Z,5.06
2023-04-05T09:42:09.159Z,5.16
2023-04-05T09:45:02.254Z,5.45
2023-04-05T09:47:34.902Z,5.33
2023-04-05T09:50:06.091Z,5.26
2023-04-05T09:52:32.808Z,5.18
2023-04-05T09:55:04.550Z,5.45
2023-04-05T09:57:34.816Z,5.78
2023-04-05T10:00:01.334Z,5.75
2023-04-05T10:02:39.112Z,5.76
2023-04-05T10:05:07.398Z,5.74
2023-04-05T10:07:34.547Z,5.99
2023-04-05T10:10:02.122Z,5.87
2023-04-05T10:12:28.851Z,5.95
2023-04-05T10:14:56.923Z,6.13
2023-04-05T10:17:49.780Z,6.32
2023-04-05T10:20:17.821Z,6.26
2023-04-05T10:23:10.103Z,6.06
2023-04-05T10:25:51.015Z,5.83
2023-04-05T10:28:37.377Z,5.67
2023-04-05T10:31:36.499Z,5.80
2023-04-05T10:34:08.885Z,5.84
2023-04-05T10:36:50.770Z,5.90
2023-04-05T10:39:19.316Z,6.01
2023-04-05T10:41:52.815Z,5.94
2023-04-05T10:44:26.160Z,6.02
2023-04-05T10:46:55.285Z,6.16
2023-04-05T10:49:39.818Z,6.42
2023-04-05T10:52:07.044Z,6.49
2023-04-05T10:54:36.675Z,6.63
2023-04-05T10:57:08.784Z,6.64
2023-04-05T10:59:42.086Z,6.58
2023-04-05T11:02:09.308Z,6.54
2023-04-05T11:04:36.760Z,6.51
2023-04-05T11:07:15.273Z,6.47
2023-04-05T11:09:54.989Z,6.38
2023-04-05T11:12:46.992Z,6.37
2023-04-05T11:15:33.150Z,6.45
2023-04-05T11:18:09.427Z,6.50
2023-04-05T11:21:05.974Z,6.63
2023-04-05T11:23:32.434Z,7.03
2023-04-05T11:26:06.630Z,7.04
2023-04-05T11:28:39.448Z,6.92
2023-04-05T11:31:18.096Z,6.88
2023-04-05T11:36:13.147Z,7.39
2023-04-05T11:38:42.509Z,7.55
2023-04-05T11:41:21.133Z,7.45
2023-04-05T11:43:48.186Z,7.33
2023-04-05T11:46:18.978Z,7.26
2023-04-05T11:48:51.982Z,7.07
2023-04-05T11:51:22.645Z,7.03
2023-04-05T11:53:49.096Z,7.01
2023-04-05T11:56:16.194Z,6.99
2023-04-05T11:58:42.774Z,7.22
2023-04-05T12:01:09.556Z,7.42
2023-04-05T12:03:37.608Z,7.40
2023-04-05T12:06:06.414Z,7.52
2023-04-05T12:08:56.257Z,7.46
2023-04-05T12:11:27.654Z,7.61
2023-04-05T12:13:56.123Z,7.91
2023-04-05T12:16:22.678Z,8.17
2023-04-05T12:18:59.980Z,8.63
2023-04-05T12:21:27.952Z,8.58
2023-04-05T12:23:54.842Z,8.53
2023-04-05T12:26:22.321Z,8.50
2023-04-05T12:28:56.401Z,9.00
2023-04-05T12:31:39.711Z,9.51
2023-04-05T12:34:06.755Z,9.75
2023-04-05T12:36:33.458Z,9.75
2023-04-05T12:39:01.225Z,9.69
2023-04-05T12:41:31.528Z,9.77
2023-04-05T12:44:01.792Z,10.45
2023-04-05T12:46:45.245Z,11.03
2023-04-05T12:49:20.789Z,11.49
2023-04-05T12:51:48.112Z,11.82
2023-04-05T12:54:23.134Z,11.95
2023-04-05T12:56:54.526Z,11.88
2023-04-05T12:59:22.226Z,12.10
2023-04-05T13:01:49.218Z,12.24
2023-04-05T13:04:17.059Z,12.20
2023-04-05T13:06:47.338Z,12.31
2023-04-05T13:09:14.210Z,12.36
2023-04-05T13:11:40.743Z,12.46
2023-04-05T13:14:07.476Z,12.59
2023-04-05T13:16:34.063Z,12.57
2023-04-05T13:19:00.702Z,12.60
2023-04-05T13:21:27.271Z,12.49
2023-04-05T13:23:53.652Z,12.67
2023-04-05T13:26:21.078Z,12.78
2023-04-05T13:28:47.608Z,12.99
2023-04-05T13:31:15.835Z,13.18
2023-04-05T13:33:42.869Z,12.91
2023-04-05T13:36:11.001Z,12.92
2023-04-05T13:38:37.800Z,12.93
2023-04-05T13:41:04.598Z,12.67
2023-04-05T13:43:31.435Z,12.71
2023-04-05T13:45:58.108Z,12.49
2023-04-05T13:48:24.565Z,12.30
2023-04-05T13:50:51.140Z,12.23
2023-04-05T13:53:17.577Z,12.19
2023-04-05T13:55:44.181Z,12.38
2023-04-05T13:58:10.937Z,12.39
2023-04-05T14:00:38.885Z,12.00
2023-04-05T14:03:05.478Z,12.09
2023-04-05T14:05:32.080Z,12.10
2023-04-05T14:07:58.548Z,12.20
2023-04-05T14:10:25.016Z,12.07
2023-04-05T14:12:51.489Z,12.03
2023-04-05T14:15:18.189Z,11.98
2023-04-05T14:17:45.180Z,11.98
2023-04-05T14:20:11.872Z,12.06
2023-04-05T14:22:38.479Z,12.15
2023-04-05T14:25:07.972Z,12.22
2023-04-05T14:27:35.954Z,12.38
2023-04-05T14:30:02.446Z,12.38
2023-04-05T14:32:30.281Z,12.43
2023-04-05T14:34:58.175Z,12.28
2023-04-05T14:37:24.652Z,12.23
2023-04-05T14:39:51.155Z,12.21
2023-04-05T14:42:17.773Z,12.22
2023-04-05T14:44:44.300Z,11.98
2023-04-05T14:47:10.851Z,11.79
2023-04-05T14:49:37.369Z,11.57
2023-04-05T14:52:04.072Z,11.48
2023-04-05T14:54:30.618Z,11.57
2023-04-05T14:56:57.080Z,11.58
2023-04-05T14:59:23.644Z,11.54
2023-04-05T15:01:50.320Z,11.33
2023-04-05T15:04:16.931Z,11.35
2023-04-05T15:06:43.425Z,11.32
2023-04-05T15:09:10.096Z,11.28
2023-04-05T15:11:39.227Z,11.22
2023-04-05T15:14:07.435Z,11.30
2023-04-05T15:16:34.147Z,11.17
2023-04-05T15:19:00.855Z,11.27
2023-04-05T15:21:27.318Z,11.45
2023-04-05T15:23:53.770Z,11.58
2023-04-05T15:26:20.946Z,11.63
2023-04-05T15:28:47.473Z,11.40
2023-04-05T15:31:14.231Z,11.26
2023-04-05T15:33:40.967Z,11.31
2023-04-05T15:36:07.759Z,11.36
2023-04-05T15:38:34.343Z,11.31
2023-04-05T15:41:01.013Z,11.30
2023-04-05T15:43:27.590Z,11.28
2023-04-05T15:45:54.243Z,11.34
2023-04-05T15:48:20.892Z,11.47
2023-04-05T15:50:48.483Z,11.57
2023-04-05T15:53:15.059Z,11.52
2023-04-05T15:55:41.620Z,11.49
2023-04-05T15:58:08.119Z,11.43
2023-04-05T16:00:34.838Z,11.50
2023-04-05T16:03:01.529Z,11.60
2023-04-05T16:05:28.171Z,11.51
2023-04-05T16:07:55.506Z,11.35
2023-04-05T16:10:21.980Z,11.45
2023-04-05T16:12:48.577Z,11.50
2023-04-05T16:15:15.542Z,11.51
2023-04-05T16:17:42.190Z,11.55
2023-04-05T16:20:09.141Z,11.67
2023-04-05T16:22:35.753Z,11.74
2023-04-05T16:25:02.234Z,11.76
2023-04-05T16:27:28.686Z,11.70
2023-04-05T16:29:55.118Z,11.68
2023-04-05T16:32:21.743Z,11.70
2023-04-05T16:34:48.345Z,11.66
2023-04-05T16:37:14.887Z,11.63
2023-04-05T16:39:41.325Z,11.47
2023-04-05T16:42:09.341Z,11.42
2023-04-05T16:44:35.913Z,11.37
2023-04-05T16:47:02.429Z,11.27
2023-04-05T16:49:28.913Z,11.30
2023-04-05T16:51:55.502Z,11.35
2023-04-05T16:54:21.984Z,11.41
2023-04-05T16:56:48.508Z,11.46
2023-04-05T16:59:15.055Z,11.48
2023-04-05T17:01:41.631Z,11.56
2023-04-05T17:04:08.235Z,11.54
2023-04-05T17:06:34.695Z,11.45
2023-04-05T17:09:01.316Z,11.39
2023-04-05T17:11:28.450Z,11.32
2023-04-05T17:13:55.356Z,11.30
2023-04-05T17:16:22.026Z,11.34
2023-04-05T17:18:48.549Z,11.24
2023-04-05T17:21:15.072Z,11.13
2023-04-05T17:23:41.544Z,11.08
2023-04-05T17:26:08.128Z,10.94
2023-04-05T17:28:34.742Z,10.85
2023-04-05T17:31:03.587Z,10.76
2023-04-05T17:33:30.285Z,10.70
2023-04-05T17:35:58.214Z,10.66
2023-04-05T17:38:24.911Z,10.61
2023-04-05T17:40:52.215Z,10.54
2023-04-05T17:43:18.824Z,10.47
2023-04-05T17:45:45.389Z,10.41
2023-04-05T17:48:12.017Z,10.38
2023-04-05T17:50:43.937Z,10.25
2023-04-05T17:53:10.484Z,10.13
2023-04-05T17:55:36.980Z,10.13
2023-04-05T17:58:03.500Z,10.10
2023-04-05T18:00:30.022Z,9.97
2023-04-05T18:02:56.676Z,9.98
2023-04-05T18:05:23.386Z,9.90
2023-04-05T18:07:51.292Z,9.73
2023-04-05T18:10:17.836Z,9.68
2023-04-05T18:12:44.412Z,9.61
2023-04-05T18:15:11.108Z,9.61
2023-04-05T18:17:37.946Z,9.53
2023-04-05T18:20:05.438Z,9.44
2023-04-05T18:22:32.659Z,9.34
2023-04-05T18:24:59.656Z,9.27
2023-04-05T18:27:26.307Z,9.25
2023-04-05T18:29:52.774Z,9.22
2023-04-05T18:32:19.474Z,9.10
2023-04-05T18:34:46.151Z,9.02
2023-04-05T18:37:12.692Z,8.99
2023-04-05T18:39:39.160Z,8.92
2023-04-05T18:42:05.816Z,8.91
2023-04-05T18:44:32.397Z,8.69
2023-04-05T18:46:58.998Z,8.45
2023-04-05T18:49:25.623Z,8.23
2023-04-05T18:51:52.208Z,8.23
2023-04-05T18:54:18.909Z,8.16
2023-04-05T18:56:46.003Z,7.92
2023-04-05T18:59:12.787Z,7.88
2023-04-05T19:01:39.399Z,7.85
2023-04-05T19:04:06.225Z,7.83
2023-04-05T19:06:32.827Z,7.71
2023-04-05T19:08:59.368Z,7.61
2023-04-05T19:11:25.862Z,7.50
2023-04-05T19:13:52.498Z,7.33
2023-04-05T19:16:19.088Z,7.32
2023-04-05T19:18:45.775Z,7.19
2023-04-05T19:21:12.415Z,7.13
2023-04-05T19:23:39.709Z,7.15
2023-04-05T19:26:06.515Z,7.14
2023-04-05T19:28:33.059Z,7.14
2023-04-05T19:30:59.570Z,7.00
2023-04-05T19:33:26.279Z,6.90
2023-04-05T19:35:52.991Z,6.83
2023-04-05T19:38:22.050Z,6.81
2023-04-05T19:40:48.655Z,6.76
2023-04-05T19:43:15.689Z,6.68
2023-04-05T19:45:42.406Z,6.48
2023-04-05T19:48:33.723Z,6.35
2023-04-05T19:51:02.985Z,6.36
2023-04-05T19:53:41.680Z,6.37
2023-04-05T19:56:15.083Z,6.35
2023-04-05T19:58:42.632Z,6.40
2023-04-05T20:01:09.316Z,6.33
2023-04-05T20:03:38.312Z,6.39
2023-04-05T20:06:12.834Z,6.33
2023-04-05T20:08:43.084Z,6.37
2023-04-05T20:11:22.200Z,6.37
2023-04-05T20:13:51.269Z,6.40
2023-04-05T20:16:21.734Z,6.36
2023-04-05T20:18:49.100Z,6.27
2023-04-05T20:21:16.461Z,6.08
2023-04-05T20:23:44.013Z,5.93
2023-04-05T20:26:17.414Z,5.91
2023-04-05T20:28:54.412Z,5.80
2023-04-05T20:31:26.301Z,5.87
2023-04-05T20:33:54.105Z,5.80
2023-04-05T20:36:51.337Z,5.89
2023-04-05T20:39:18.297Z,5.99
2023-04-05T20:41:46.580Z,5.97
2023-04-05T20:44:13.220Z,5.95
2023-04-05T20:46:39.841Z,5.91
2023-04-05T20:49:07.096Z,5.77
2023-04-05T20:51:33.969Z,5.75
2023-04-05T20:54:00.529Z,5.80
2023-04-05T20:56:27.052Z,5.74
2023-04-05T20:58:55.009Z,5.61
2023-04-05T21:01:21.926Z,5.53
2023-04-05T21:03:48.522Z,5.44
2023-04-05T21:06:15.392Z,5.30
2023-04-05T21:08:42.004Z,5.32
2023-04-05T21:11:11.280Z,5.31
2023-04-05T21:13:39.097Z,5.32
2023-04-05T21:16:06.123Z,5.30
2023-04-05T21:18:32.971Z,5.30
2023-04-05T21:21:00.316Z,5.22
2023-04-05T21:23:27.917Z,5.07
2023-04-05T21:25:55.905Z,4.86
2023-04-05T21:28:22.924Z,4.76
2023-04-05T21:30:49.695Z,4.68
2023-04-05T21:33:17.020Z,4.76
2023-04-05T21:35:43.551Z,4.76
2023-04-05T21:38:10.302Z,4.67
2023-04-05T21:40:37.721Z,4.69
2023-04-05T21:43:04.538Z,4.50
2023-04-05T21:45:31.089Z,4.42
2023-04-05T21:47:57.644Z,4.37
2023-04-05T21:50:24.526Z,4.21
2023-04-05T21:52:51.188Z,4.35
2023-04-05T21:55:17.778Z,4.45
2023-04-05T21:57:44.340Z,4.48
2023-04-05T22:00:11.964Z,4.41
2023-04-05T22:02:39.146Z,4.44
2023-04-05T22:05:07.593Z,4.46
2023-04-05T22:07:35.422Z,4.40
2023-04-05T22:10:02.700Z,4.39
2023-04-05T22:12:29.596Z,4.33
2023-04-05T22:14:56.373Z,4.36
2023-04-05T22:17:23.013Z,4.33
2023-04-05T22:19:49.582Z,4.24
2023-04-05T22:22:16.491Z,4.24
2023-04-05T22:24:43.266Z,4.13
2023-04-05T22:27:10.415Z,4.10
2023-04-05T22:29:37.289Z,4.13
2023-04-05T22:32:04.182Z,4.14
2023-04-05T22:34:30.893Z,4.14
2023-04-05T22:36:57.343Z,4.13
2023-04-05T22:39:23.910Z,4.10
2023-04-05T22:41:50.434Z,4.01
2023-04-05T22:44:16.968Z,3.88
2023-04-05T22:46:43.600Z,3.89
2023-04-05T22:49:10.360Z,3.87
2023-04-05T22:51:37.316Z,3.96
2023-04-05T22:54:03.887Z,3.89
2023-04-05T22:56:31.697Z,3.90
2023-04-05T22:58:58.237Z,3.92
2023-04-05T23:01:24.978Z,3.87
2023-04-05T23:03:51.531Z,3.80
2023-04-05T23:06:18.117Z,3.78
2023-04-05T23:08:44.616Z,3.73
2023-04-05T23:11:11.060Z,3.73
2023-04-05T23:13:37.587Z,3.68
2023-04-05T23:16:04.480Z,3.65
2023-04-05T23:18:31.112Z,3.58
2023-04-05T23:20:57.619Z,3.48
2023-04-05T23:23:24.204Z,3.48
2023-04-05T23:25:51.158Z,3.46
2023-04-05T23:28:17.674Z,3.39
2023-04-05T23:30:44.238Z,3.42
2023-04-05T23:33:13.217Z,3.37
2023-04-05T23:35:40.530Z,3.37
2023-04-05T23:38:07.421Z,3.31
2023-04-05T23:40:34.089Z,3.32
2023-04-05T23:43:00.758Z,3.34
2023-04-05T23:45:27.590Z,3.36
2023-04-05T23:47:55.533Z,3.29
2023-04-05T23:50:22.161Z,3.23
2023-04-05T23:52:49.181Z,3.34
2023-04-05T23:55:15.784Z,3.30
2023-04-05T23:57:42.360Z,3.30
